createdAt,value
2022-10-13T00:00:47.256Z,44.47
2022-10-13T00:03:15.016Z,45.13
2022-10-13T00:05:47.401Z,45.47
2022-10-13T00:08:18.897Z,46.17
2022-10-13T00:10:47.176Z,43.40
2022-10-13T00:13:15.105Z,41.25
2022-10-13T00:15:44.297Z,40.78
2022-10-13T00:18:11.463Z,43.60
2022-10-13T00:20:46.991Z,40.88
2022-10-13T00:23:14.388Z,38.08
2022-10-13T00:25:45.685Z,39.28
2022-10-13T00:28:13.496Z,42.60
2022-10-13T00:30:40.973Z,46.25
2022-10-13T00:33:09.052Z,49.67
2022-10-13T00:35:41.696Z,49.72
2022-10-13T00:38:08.615Z,43.40
2022-10-13T00:40:53.172Z,46.15
2022-10-13T00:43:24.075Z,47.00
2022-10-13T00:45:52.171Z,47.47
2022-10-13T00:48:25.399Z,45.95
2022-10-13T00:50:52.957Z,53.25
2022-10-13T00:53:23.614Z,56.42
2022-10-13T00:55:52.095Z,45.50
2022-10-13T00:58:23.299Z,53.97
2022-10-13T01:00:52.127Z,56.85
2022-10-13T01:03:20.533Z,48.95
2022-10-13T01:05:48.997Z,55.28
2022-10-13T01:08:17.940Z,51.63
2022-10-13T01:11:01.866Z,54.63
2022-10-13T01:13:55.117Z,54.33
2022-10-13T01:17:00.457Z,57.67
2022-10-13T01:19:48.444Z,53.38
2022-10-13T01:22:24.290Z,47.20
2022-10-13T01:25:09.097Z,44.10
2022-10-13T01:27:51.722Z,46.03
2022-10-13T01:30:20.005Z,34.78
2022-10-13T01:33:18.594Z,31.02
2022-10-13T01:36:06.695Z,32.88
2022-10-13T01:38:39.380Z,37.45
2022-10-13T01:41:20.712Z,33.45
2022-10-13T01:43:57.546Z,31.48
2022-10-13T01:46:29.492Z,35.95
2022-10-13T01:48:59.913Z,41.03
2022-10-13T01:51:29.295Z,34.47
2022-10-13T01:53:56.643Z,35.83
2022-10-13T01:56:23.398Z,37.25
2022-10-13T01:58:52.799Z,35.30
2022-10-13T02:01:34.003Z,34.80
2022-10-13T02:04:19.172Z,34.30
2022-10-13T02:06:57.214Z,35.42
2022-10-13T02:09:28.109Z,31.50
2022-10-13T02:12:08.501Z,33.80
2022-10-13T02:14:38.382Z,34.63
2022-10-13T02:17:05.883Z,34.53
2022-10-13T02:19:37.988Z,27.23
2022-10-13T02:22:06.701Z,34.50
2022-10-13T02:24:33.734Z,35.67
2022-10-13T02:27:00.612Z,34.95
2022-10-13T02:29:27.603Z,35.47
2022-10-13T02:31:54.928Z,35.88
2022-10-13T02:34:21.930Z,38.97
2022-10-13T02:36:48.954Z,36.28
2022-10-13T02:39:16.034Z,35.20
2022-10-13T02:41:42.813Z,41.88
2022-10-13T02:44:09.898Z,32.78
2022-10-13T02:46:41.302Z,40.83
2022-10-13T02:49:09.400Z,36.58
2022-10-13T02:51:39.838Z,34.90
2022-10-13T02:54:07.368Z,32.75
2022-10-13T02:56:34.204Z,30.88
2022-10-13T02:59:01.071Z,34.65
2022-10-13T03:01:28.193Z,28.00
2022-10-13T03:03:55.110Z,28.30
2022-10-13T03:06:22.036Z,33.15
2022-10-13T03:08:49.142Z,37.00
2022-10-13T03:11:16.039Z,43.55
2022-10-13T03:13:42.802Z,36.58
2022-10-13T03:16:09.586Z,39.47
2022-10-13T03:18:36.402Z,41.08
2022-10-13T03:21:05.449Z,37.25
2022-10-13T03:23:34.291Z,34.75
2022-10-13T03:26:01.559Z,34.83
2022-10-13T03:28:28.752Z,40.95
2022-10-13T03:31:07.207Z,37.20
2022-10-13T03:33:34.490Z,34.58
2022-10-13T03:36:03.254Z,36.15
2022-10-13T03:38:31.348Z,30.00
2022-10-13T03:40:58.287Z,38.90
2022-10-13T03:43:25.755Z,31.35
2022-10-13T03:46:00.000Z,35.10
2022-10-13T03:48:26.989Z,32.33
2022-10-13T03:50:54.991Z,32.55
2022-10-13T03:53:22.538Z,32.30
2022-10-13T03:55:50.799Z,28.60
2022-10-13T03:58:18.383Z,33.17
2022-10-13T04:00:47.557Z,30.27
2022-10-13T04:03:14.384Z,34.67
2022-10-13T04:05:41.205Z,35.97
2022-10-13T04:08:08.213Z,35.65
2022-10-13T04:10:35.781Z,31.73
2022-10-13T04:13:02.782Z,34.60
2022-10-13T04:15:29.703Z,34.92
2022-10-13T04:17:56.621Z,34.83
2022-10-13T04:20:23.548Z,29.65
2022-10-13T04:22:52.635Z,32.10
2022-10-13T04:25:19.416Z,35.53
2022-10-13T04:27:48.136Z,31.67
2022-10-13T04:30:14.916Z,35.15
2022-10-13T04:32:41.738Z,38.83
2022-10-13T04:35:11.416Z,31.20
2022-10-13T04:37:42.754Z,32.63
2022-10-13T04:40:12.390Z,30.50
2022-10-13T04:42:39.143Z,33.22
2022-10-13T04:45:06.579Z,30.58
2022-10-13T04:47:37.121Z,28.00
2022-10-13T04:50:04.579Z,35.75
2022-10-13T04:52:31.463Z,34.28
2022-10-13T04:54:58.223Z,27.35
2022-10-13T04:57:25.044Z,30.30
2022-10-13T04:59:51.862Z,38.05
2022-10-13T05:02:19.003Z,33.85
2022-10-13T05:04:46.100Z,31.33
2022-10-13T05:07:17.994Z,32.50
2022-10-13T05:09:46.255Z,38.53
2022-10-13T05:12:13.712Z,33.28
2022-10-13T05:14:40.497Z,32.80
2022-10-13T05:17:07.688Z,32.80
2022-10-13T05:19:34.556Z,31.63
2022-10-13T05:22:01.419Z,34.85
2022-10-13T05:24:36.494Z,36.13
2022-10-13T05:27:09.298Z,37.53
2022-10-13T05:29:37.200Z,36.53
2022-10-13T05:32:04.849Z,35.88
2022-10-13T05:34:32.757Z,34.17
2022-10-13T05:37:00.304Z,30.90
2022-10-13T05:39:27.406Z,36.67
2022-10-13T05:41:54.187Z,35.15
2022-10-13T05:44:21.778Z,36.67
2022-10-13T05:46:55.516Z,33.88
2022-10-13T05:49:22.498Z,30.63
2022-10-13T05:51:53.375Z,32.22
2022-10-13T05:54:33.982Z,26.98
2022-10-13T05:57:11.271Z,28.15
2022-10-13T05:59:42.747Z,28.60
2022-10-13T06:02:12.392Z,35.45
2022-10-13T06:04:44.858Z,32.40
2022-10-13T06:07:12.186Z,29.60
2022-10-13T06:09:40.463Z,28.55
2022-10-13T06:12:08.895Z,31.73
2022-10-13T06:14:36.102Z,32.28
2022-10-13T06:17:06.908Z,37.30
2022-10-13T06:19:33.845Z,34.42
2022-10-13T06:22:07.379Z,39.63
2022-10-13T06:24:34.161Z,41.33
2022-10-13T06:27:00.995Z,46.70
2022-10-13T06:29:27.774Z,43.38
2022-10-13T06:31:54.510Z,52.60
2022-10-13T06:34:21.285Z,54.42
2022-10-13T06:36:48.115Z,45.03
2022-10-13T06:39:15.006Z,48.50
2022-10-13T06:41:41.777Z,48.97
2022-10-13T06:44:08.711Z,52.53
2022-10-13T06:46:35.664Z,53.75
2022-10-13T06:49:02.533Z,54.67
2022-10-13T06:51:29.479Z,51.65
2022-10-13T06:53:57.282Z,58.90
2022-10-13T06:56:25.902Z,57.28
2022-10-13T06:58:52.798Z,55.28
2022-10-13T07:01:19.585Z,56.90
2022-10-13T07:03:49.829Z,56.28
2022-10-13T07:06:19.082Z,65.30
2022-10-13T07:08:45.844Z,54.03
2022-10-13T07:11:16.587Z,58.15
2022-10-13T07:13:48.574Z,56.90
2022-10-13T07:16:16.882Z,54.00
2022-10-13T07:18:44.146Z,61.20
2022-10-13T07:21:11.047Z,59.53
2022-10-13T07:23:37.978Z,50.88
2022-10-13T07:26:11.197Z,55.50
2022-10-13T07:28:38.425Z,49.90
2022-10-13T07:31:17.195Z,55.95
2022-10-13T07:33:45.974Z,61.80
2022-10-13T07:36:13.494Z,55.45
2022-10-13T07:38:40.983Z,47.72
2022-10-13T07:41:10.273Z,46.22
2022-10-13T07:43:37.162Z,48.47
2022-10-13T07:46:06.435Z,52.03
2022-10-13T07:48:34.004Z,47.85
2022-10-13T07:51:11.386Z,47.17
2022-10-13T07:53:38.701Z,43.25
2022-10-13T07:56:07.844Z,45.75
2022-10-13T07:58:37.819Z,40.42
2022-10-13T08:01:05.760Z,44.95
2022-10-13T08:03:40.209Z,46.08
2022-10-13T08:06:09.883Z,47.15
2022-10-13T08:08:37.082Z,46.50
2022-10-13T08:11:06.822Z,40.33
2022-10-13T08:13:34.549Z,40.75
2022-10-13T08:16:12.885Z,40.47
2022-10-13T08:18:39.734Z,45.30
2022-10-13T08:21:53.424Z,40.65
2022-10-13T08:23:59.870Z,38.83
2022-10-13T08:26:28.533Z,38.40
2022-10-13T08:29:16.875Z,40.17
2022-10-13T08:31:42.885Z,42.75
2022-10-13T08:34:10.350Z,36.75
2022-10-13T08:36:37.961Z,39.50
2022-10-13T08:39:05.242Z,39.55
2022-10-13T08:41:37.340Z,36.88
2022-10-13T08:44:56.749Z,29.98
2022-10-13T08:47:35.842Z,37.50
2022-10-13T08:50:12.511Z,32.75
2022-10-13T08:52:59.995Z,29.05
2022-10-13T08:55:43.939Z,28.05
2022-10-13T08:58:27.040Z,27.55
2022-10-13T09:01:08.887Z,28.50
2022-10-13T09:03:49.191Z,28.95
2022-10-13T09:06:18.711Z,25.42
2022-10-13T09:09:14.378Z,25.85
2022-10-13T09:11:47.985Z,24.20
2022-10-13T09:14:25.405Z,26.50
2022-10-13T09:16:56.819Z,24.40
2022-10-13T09:19:36.301Z,21.80
2022-10-13T09:22:30.939Z,23.83
2022-10-13T09:25:11.611Z,24.20
2022-10-13T09:28:01.088Z,23.67
2022-10-13T09:30:38.450Z,26.13
2022-10-13T09:33:08.884Z,27.13
2022-10-13T09:35:38.912Z,24.67
2022-10-13T09:38:09.472Z,27.17
2022-10-13T09:40:37.155Z,25.52
2022-10-13T09:43:28.169Z,30.27
2022-10-13T09:45:55.955Z,26.30
2022-10-13T09:48:30.190Z,27.05
2022-10-13T09:50:58.178Z,27.52
2022-10-13T09:53:37.058Z,26.13
2022-10-13T09:56:30.677Z,21.88
2022-10-13T09:59:21.868Z,22.00
2022-10-13T10:01:51.742Z,23.15
2022-10-13T10:04:24.768Z,23.52
2022-10-13T10:06:51.885Z,24.90
2022-10-13T10:09:40.101Z,21.52
2022-10-13T10:12:13.049Z,20.90
2022-10-13T10:14:40.223Z,24.88
2022-10-13T10:17:12.732Z,28.02
2022-10-13T10:19:45.778Z,27.33
2022-10-13T10:22:25.726Z,21.85
2022-10-13T10:25:03.194Z,26.90
2022-10-13T10:27:42.863Z,24.70
2022-10-13T10:30:19.453Z,26.33
2022-10-13T10:33:08.077Z,28.25
2022-10-13T10:36:17.135Z,28.10
2022-10-13T10:39:02.481Z,30.48
2022-10-13T10:41:36.059Z,26.13
2022-10-13T10:44:11.230Z,28.20
2022-10-13T10:46:45.654Z,24.30
2022-10-13T10:49:35.157Z,27.70
2022-10-13T10:52:08.382Z,22.13
2022-10-13T10:54:54.235Z,26.40
2022-10-13T10:57:32.140Z,21.50
2022-10-13T11:00:05.441Z,20.90
2022-10-13T11:02:54.483Z,24.20
2022-10-13T11:05:21.424Z,24.52
2022-10-13T11:07:51.060Z,19.08
2022-10-13T11:10:22.062Z,23.20
2022-10-13T11:12:52.672Z,26.65
2022-10-13T11:15:56.509Z,25.88
2022-10-13T11:18:54.005Z,24.65
2022-10-13T11:21:21.718Z,20.83
2022-10-13T11:23:50.178Z,19.20
2022-10-13T11:26:43.489Z,25.38
2022-10-13T11:29:19.064Z,18.00
2022-10-13T11:31:54.674Z,19.35
2022-10-13T11:34:30.571Z,23.17
2022-10-13T11:37:03.007Z,18.77
2022-10-13T11:39:52.505Z,19.73
2022-10-13T11:42:36.549Z,17.98
2022-10-13T11:45:10.771Z,17.92
2022-10-13T11:47:43.054Z,14.43
2022-10-13T11:50:28.692Z,18.35
2022-10-13T11:53:16.471Z,14.13
2022-10-13T11:55:52.960Z,16.35
2022-10-13T11:58:26.370Z,15.48
2022-10-13T12:01:07.190Z,14.50
2022-10-13T12:03:36.700Z,16.42
2022-10-13T12:06:23.140Z,14.77
2022-10-13T12:08:52.009Z,14.15
2022-10-13T12:11:27.868Z,17.75
2022-10-13T12:13:55.428Z,18.58
2022-10-13T12:16:22.517Z,16.38
2022-10-13T12:18:51.088Z,15.13
2022-10-13T12:21:21.207Z,14.80
2022-10-13T12:23:50.173Z,17.45
2022-10-13T12:26:27.198Z,14.38
2022-10-13T12:29:01.691Z,15.95
2022-10-13T12:31:37.963Z,20.23
2022-10-13T12:34:04.897Z,15.98
2022-10-13T12:36:34.295Z,18.23
2022-10-13T12:39:08.339Z,13.07
2022-10-13T12:41:38.429Z,14.35
2022-10-13T12:44:07.524Z,21.00
2022-10-13T12:46:45.360Z,20.10
2022-10-13T12:52:14.565Z,13.90
2022-10-13T12:54:50.135Z,14.15
2022-10-13T12:57:22.422Z,14.07
2022-10-13T12:59:49.602Z,14.20
2022-10-13T13:02:29.229Z,13.07
2022-10-13T13:04:56.180Z,14.20
2022-10-13T13:07:33.450Z,18.88
2022-10-13T13:10:16.589Z,14.82
2022-10-13T13:12:45.007Z,10.25
2022-10-13T13:15:32.789Z,4.38
2022-10-13T13:18:39.591Z,8.38
2022-10-13T13:21:14.852Z,3.83
2022-10-13T13:23:42.798Z,3.78
2022-10-13T13:26:20.997Z,4.72
2022-10-13T13:28:55.670Z,5.10
2022-10-13T13:31:24.584Z,7.82
2022-10-13T13:33:52.774Z,5.25
2022-10-13T13:36:22.334Z,6.40
2022-10-13T13:38:52.747Z,6.57
2022-10-13T13:41:20.484Z,7.35
2022-10-13T13:43:47.433Z,7.70
2022-10-13T13:46:22.537Z,3.75
2022-10-13T13:48:49.729Z,6.18
2022-10-13T13:51:17.194Z,5.32
2022-10-13T13:53:46.067Z,6.63
2022-10-13T13:56:14.847Z,10.43
2022-10-13T13:58:42.128Z,5.07
2022-10-13T14:01:09.691Z,6.07
2022-10-13T14:03:36.641Z,4.78
2022-10-13T14:06:06.375Z,12.95
2022-10-13T14:08:35.057Z,7.25
2022-10-13T14:11:06.253Z,5.97
2022-10-13T14:13:34.075Z,8.23
2022-10-13T14:16:02.426Z,6.18
2022-10-13T14:18:29.913Z,7.60
2022-10-13T14:20:56.901Z,5.18
2022-10-13T14:23:23.795Z,5.95
2022-10-13T14:25:50.592Z,5.07
2022-10-13T14:28:18.596Z,7.40
2022-10-13T14:30:45.496Z,4.35
2022-10-13T14:33:12.389Z,4.47
2022-10-13T14:35:39.305Z,9.18
2022-10-13T14:38:06.188Z,7.43
2022-10-13T14:40:33.992Z,6.93
2022-10-13T14:43:00.772Z,10.32
2022-10-13T14:45:27.518Z,5.85
2022-10-13T14:47:54.657Z,11.38
2022-10-13T14:50:21.437Z,5.30
2022-10-13T14:52:55.473Z,7.45
2022-10-13T14:55:22.473Z,6.72
2022-10-13T14:57:49.451Z,4.72
2022-10-13T15:00:16.754Z,6.03
2022-10-13T15:02:43.721Z,3.95
2022-10-13T15:05:10.553Z,5.78
2022-10-13T15:07:40.968Z,7.28
2022-10-13T15:10:08.644Z,6.85
2022-10-13T15:12:35.721Z,6.05
2022-10-13T15:15:03.622Z,7.90
2022-10-13T15:17:31.625Z,4.63
2022-10-13T15:19:58.600Z,3.63
2022-10-13T15:22:25.780Z,5.20
2022-10-13T15:24:52.737Z,4.85
2022-10-13T15:27:19.580Z,7.70
2022-10-13T15:29:46.348Z,5.57
2022-10-13T15:32:20.324Z,5.70
2022-10-13T15:34:54.619Z,5.47
2022-10-13T15:37:21.390Z,9.25
2022-10-13T15:39:51.960Z,7.20
2022-10-13T15:42:21.881Z,6.50
2022-10-13T15:45:08.878Z,10.35
2022-10-13T15:47:36.412Z,9.35
2022-10-13T15:50:03.745Z,9.85
2022-10-13T15:52:34.726Z,10.07
2022-10-13T15:55:02.015Z,14.68
2022-10-13T15:57:30.510Z,10.65
2022-10-13T15:59:57.396Z,20.80
2022-10-13T16:02:24.409Z,12.68
2022-10-13T16:04:51.674Z,14.13
2022-10-13T16:07:18.683Z,13.60
2022-10-13T16:09:45.678Z,14.45
2022-10-13T16:12:12.507Z,11.13
2022-10-13T16:14:39.365Z,6.95
2022-10-13T16:17:06.201Z,3.83
2022-10-13T16:19:33.044Z,3.63
2022-10-13T16:21:59.972Z,8.65
2022-10-13T16:24:26.766Z,4.80
2022-10-13T16:26:53.801Z,7.82
2022-10-13T16:29:22.293Z,8.85
2022-10-13T16:31:49.313Z,6.43
2022-10-13T16:34:16.448Z,6.22
2022-10-13T16:36:43.624Z,6.82
2022-10-13T16:39:10.711Z,6.82
2022-10-13T16:41:39.259Z,9.07
2022-10-13T16:44:06.568Z,8.75
2022-10-13T16:46:33.820Z,7.45
2022-10-13T16:49:00.587Z,8.95
2022-10-13T16:51:28.247Z,7.68
2022-10-13T16:54:02.724Z,10.05
2022-10-13T16:56:31.121Z,11.85
2022-10-13T16:59:00.055Z,9.43
2022-10-13T17:01:27.535Z,8.30
2022-10-13T17:03:54.964Z,7.85
2022-10-13T17:06:25.634Z,9.52
2022-10-13T17:08:59.969Z,7.88
2022-10-13T17:11:29.926Z,9.68
2022-10-13T17:13:58.066Z,14.18
2022-10-13T17:16:25.674Z,15.90
2022-10-13T17:18:52.721Z,18.20
2022-10-13T17:21:21.891Z,19.20
2022-10-13T17:23:49.243Z,13.93
2022-10-13T17:26:17.610Z,15.88
2022-10-13T17:28:44.758Z,13.30
2022-10-13T17:31:14.854Z,12.68
2022-10-13T17:33:42.676Z,10.25
2022-10-13T17:36:13.168Z,12.52
2022-10-13T17:38:40.547Z,12.15
2022-10-13T17:41:09.137Z,15.25
2022-10-13T17:43:40.739Z,10.40
2022-10-13T17:49:04.400Z,9.82
2022-10-13T17:51:31.240Z,10.23
2022-10-13T17:53:59.623Z,9.43
2022-10-13T17:56:26.667Z,10.05
2022-10-13T17:58:54.334Z,8.75
2022-10-13T18:01:42.039Z,10.82
2022-10-13T18:04:13.370Z,11.25
2022-10-13T18:06:41.308Z,9.35
2022-10-13T18:09:16.676Z,12.27
2022-10-13T18:11:49.739Z,12.05
2022-10-13T18:14:21.503Z,11.32
2022-10-13T18:16:49.733Z,11.05
2022-10-13T18:19:16.805Z,10.93
2022-10-13T18:21:43.576Z,16.42
2022-10-13T18:24:11.442Z,11.80
2022-10-13T18:26:38.633Z,11.20
2022-10-13T18:29:07.310Z,11.45
2022-10-13T18:31:36.217Z,12.25
2022-10-13T18:34:06.213Z,13.65
2022-10-13T18:36:41.775Z,11.18
2022-10-13T18:39:12.902Z,10.68
2022-10-13T18:41:41.143Z,12.23
2022-10-13T18:44:08.954Z,10.32
2022-10-13T18:46:37.432Z,10.85
2022-10-13T18:49:05.553Z,9.15
2022-10-13T18:51:36.182Z,7.88
2022-10-13T18:54:04.114Z,9.23
2022-10-13T18:56:32.298Z,17.83
2022-10-13T18:59:00.899Z,12.23
2022-10-13T19:01:31.381Z,24.10
2022-10-13T19:03:58.584Z,21.40
2022-10-13T19:06:27.304Z,26.17
2022-10-13T19:09:00.800Z,21.70
2022-10-13T19:11:29.421Z,11.38
2022-10-13T19:13:57.683Z,11.02
2022-10-13T19:16:26.310Z,10.00
2022-10-13T19:18:53.318Z,10.88
2022-10-13T19:21:21.403Z,9.10
2022-10-13T19:23:48.907Z,13.10
2022-10-13T19:26:24.121Z,12.32
2022-10-13T19:29:00.024Z,12.48
2022-10-13T19:31:29.334Z,10.52
2022-10-13T19:33:57.185Z,13.48
2022-10-13T19:36:24.331Z,34.70
2022-10-13T19:38:54.139Z,18.98
2022-10-13T19:41:20.958Z,18.23
2022-10-13T19:43:47.832Z,26.67
2022-10-13T19:46:15.249Z,27.38
2022-10-13T19:48:42.244Z,15.77
2022-10-13T19:51:09.620Z,18.40
2022-10-13T19:53:37.655Z,16.45
2022-10-13T19:56:05.019Z,16.20
2022-10-13T19:58:32.103Z,16.10
2022-10-13T20:01:06.803Z,12.65
2022-10-13T20:03:34.053Z,15.15
2022-10-13T20:06:06.838Z,17.90
2022-10-13T20:08:38.404Z,15.50
2022-10-13T20:11:10.259Z,17.85
2022-10-13T20:13:37.329Z,26.70
2022-10-13T20:16:10.070Z,61.08
2022-10-13T20:18:37.666Z,35.35
2022-10-13T20:21:05.666Z,38.88
2022-10-13T20:23:32.826Z,28.50
2022-10-13T20:26:10.894Z,20.67
2022-10-13T20:28:43.071Z,18.98
2022-10-13T20:31:12.830Z,27.90
2022-10-13T20:33:39.786Z,29.10
2022-10-13T20:36:08.937Z,19.48
2022-10-13T20:38:36.274Z,20.13
2022-10-13T20:41:04.040Z,23.08
2022-10-13T20:43:30.908Z,28.88
2022-10-13T20:46:05.857Z,31.52
2022-10-13T20:48:57.844Z,18.33
2022-10-13T20:51:22.903Z,14.07
2022-10-13T20:53:49.964Z,17.55
2022-10-13T20:56:20.558Z,29.48
2022-10-13T20:58:47.670Z,32.00
2022-10-13T21:01:15.060Z,33.85
2022-10-13T21:03:42.023Z,22.38
2022-10-13T21:06:11.741Z,26.55
2022-10-13T21:08:39.012Z,26.65
2022-10-13T21:11:11.622Z,24.75
2022-10-13T21:13:40.223Z,23.55
2022-10-13T21:16:09.267Z,19.23
2022-10-13T21:18:36.285Z,13.32
2022-10-13T21:21:08.681Z,14.02
2022-10-13T21:23:36.250Z,13.32
2022-10-13T21:26:08.564Z,12.88
2022-10-13T21:28:37.937Z,12.70
2022-10-13T21:31:10.880Z,10.43
2022-10-13T21:33:39.257Z,12.75
2022-10-13T21:36:11.583Z,12.20
2022-10-13T21:38:41.643Z,11.30
2022-10-13T21:41:10.503Z,12.27
2022-10-13T21:43:37.287Z,13.93
2022-10-13T21:46:14.642Z,13.82
2022-10-13T21:48:45.025Z,12.73
2022-10-13T21:51:19.006Z,18.23
2022-10-13T21:53:54.060Z,19.52
2022-10-13T21:56:21.776Z,15.65
2022-10-13T21:58:49.173Z,14.50
2022-10-13T22:01:17.346Z,17.67
2022-10-13T22:03:44.479Z,13.95
2022-10-13T22:06:19.092Z,14.95
2022-10-13T22:08:48.048Z,14.27
2022-10-13T22:11:22.860Z,14.85
2022-10-13T22:13:50.062Z,15.13
2022-10-13T22:16:29.028Z,11.57
2022-10-13T22:18:56.946Z,14.90
2022-10-13T22:21:26.692Z,13.50
2022-10-13T22:23:57.037Z,15.48
2022-10-13T22:26:24.260Z,14.90
2022-10-13T22:28:51.925Z,16.00
2022-10-13T22:31:19.009Z,15.98
2022-10-13T22:33:46.494Z,11.55
2022-10-13T22:36:18.436Z,11.50
2022-10-13T22:38:46.868Z,13.18
2022-10-13T22:41:15.244Z,13.93
2022-10-13T22:43:46.723Z,15.18
2022-10-13T22:46:18.578Z,16.65
2022-10-13T22:48:45.599Z,14.02
2022-10-13T22:51:16.937Z,18.00
2022-10-13T22:53:44.706Z,16.30
2022-10-13T22:56:17.964Z,12.52
2022-10-13T22:58:52.594Z,14.05
2022-10-13T23:01:20.486Z,13.25
2022-10-13T23:03:49.340Z,14.23
2022-10-13T23:06:18.984Z,13.70
2022-10-13T23:08:45.829Z,13.80
2022-10-13T23:11:12.805Z,13.00
2022-10-13T23:13:39.723Z,13.95
2022-10-13T23:16:15.498Z,12.93
2022-10-13T23:18:42.864Z,13.13
2022-10-13T23:21:24.441Z,12.93
2022-10-13T23:24:03.075Z,16.52
2022-10-13T23:26:30.490Z,13.00
2022-10-13T23:28:58.381Z,9.20
2022-10-13T23:31:26.963Z,8.00
2022-10-13T23:33:54.606Z,10.52
2022-10-13T23:36:27.254Z,9.43
2022-10-13T23:39:00.789Z,9.40
2022-10-13T23:41:28.375Z,9.63
2022-10-13T23:43:55.565Z,9.73
2022-10-13T23:46:25.204Z,10.30
2022-10-13T23:48:52.634Z,9.90
2022-10-13T23:51:22.020Z,10.52
2022-10-13T23:53:49.372Z,12.88
2022-10-13T23:56:17.931Z,12.15
2022-10-13T23:58:45.650Z,10.63
